Wendel, Pennsylvania
Current Conditions -  °F | °C
As of 3:53 AM on Friday 28 Nov 2014 (Local Time) from KAGC Reporting Station
Overcast Overcast  
Wind Chill: 20°   Ceiling: 1600
Heat Index: 27°   Visibility: 7mi
Dew Point: 20°   Wind: 6mph
Humidity: 75%   Direction: 310°NW
Pressure: 30.22"   Gusts: 17mph
Location:  40.3°N, 79.69°W
Report Text: KAGC 280853Z 31005G15KT 7SM OVC016 M03/M07 A3022 RMK AO2 SLP254 60000 T10281067 53013
Loading
Personal Weather Stations






























Interactive Weather Map New forecast layout! Learn more

10-Day Weather Forecast

Advertisements
Track Severe Weather on mobile